Create Custom Reports and Graphics: Custom Report

Northern Napa County Map

Map

15 Minute Data

Southern Napa County Map

Map

15 Minute Data

Napa County - East

Latest Observations

15 Minute Data | America/Los_Angeles
as of 8/22/19 11:10 AM PDT
Station Date Time Temp (°F) Dew Pt (°F) RH (%) Wind Dir (°) Wind Spd (mph) Wind Gust (mph) Latest Rain (In) Daily Rain (In) Daily Min Temp (°F) Daily Max Temp (°F)
Pope Valley - Weeks Lake 8/22/19 1100 89.4   1.3 58.8   1.5 36   0 SSW | 201 2.1   0.4 6.6   1.3 0.00   0.00 0.00   0.00 60.8   8.2 90.9   1.5
Dollarhide - STS 8/22/19 1100 90.2   2.5 64.2   3.8 42   2 SSW | 194 3.2   1.8 6.6   2.7 0.00   0.00 0.00   0.00 65.3   8.7 91.9   3.1
1AS Remote - STS 8/22/19 1100 93.2   5.9 64.2   4.2 38   2 SW | 222 2.5   1.1 4.8   1.3 - - 60.0   7.9 93.9   3.9
17B Remote - STS 8/22/19 1100 90.2   3.3 63.5   3.1 41   0 - - - - - 87.0   5.8 91.3   3.1
18A Remote - STS 8/22/19 1100 88.7   2.6 62.6   4.6 42   3 - - - - - 60.2   9.0 89.6   2.5
Brown Estate-Lower Chiles Valley 8/22/19 1100 87.5   11.2 57.5   0.3 36   15 NNE | 14 3.0   3.0 7.8   2.1 0.00   0.00 0.00   0.00 58.3   8.3 88.1   10.3
Moss Creek Vineyard 8/22/19 1100 86.1   0.1 60.5   2.2 42   3 - - - 0.00   0.00 0.00   0.00 63.1   8.5 87.3   1.0
Max     93.2 64.2 42 - 3.2 7.8 0.00 0.00 87.0 93.9
Avg     89.3 61.6 40 - 2.7 6.4 0.00 - - -
Min     86.1 57.5 36 - 2.1 4.8 0.00 0.00 58.3 87.3

Napa County - Northern/Central

14 Stations

15 Minute Data | America/Los_Angeles
as of 8/22/19 11:10 AM PDT
Station Date Time Temp (°F) RH (%) Dew Pt (°F) Wind Dir (°) Wind Spd (mph) Wind Gust (mph) Latest Rain (In) Daily Rain (In) Daily Min Temp (°F) Daily Max Temp (°F)
Calistoga 8/22/19 1100 86.7   2.2 50   9 66.0   7.6 - - - 0.00 0.00 62.6   9.4 88.1   2.3
St. Helena (TSH) 8/22/19 1100 86.0   5.6 50   5 65.1   7.8 SSE | 159 1.2   0.1 4.6   0.7 0.00 0.00 64.4   10.7 87.3   5.2
Rutherford Hill - Estate 8/22/19 1100 80.2   5.2 63   8 66.4   8.5 S | 190 2.0   0.1 6.1   1.5 0.00 0.00 64.0   8.2 81.2   4.5
Mee Lane - MKV 8/22/19 1100 81.8   4.5 61   10 67.1   9.5 SE | 127 3.7   1.2 7.5   1.1 0.00 0.00 61.5   9.0 82.6   4.7
Rutherford - STS 8/22/19 1100 83.3   6.0 62   8 69.2   9.5 SE | 132 3.4   0.6 8.0   2.2 0.00 0.00 61.8   9.3 85.1   6.2
Skellenger 8/22/19 1100 81.8   4.1 58   9 65.7   8.7 SSE | 164 3.3   1.9 7.1   1.4 0.00 0.00 61.2   9.7 82.3   3.6
To Kalon 8/22/19 1100 81.9   4.6 61   9 67.0   8.8 SSE | 148 4.0   1.2 7.1   0.6 0.00 0.00 62.7   9.8 82.7   4.6
Wappo Hill 8/22/19 1100 80.7   5.1 61   8 66.0   8.9 S | 171 4.3   1.2 8.0   2.2 0.00 0.00 63.1   10.8 81.6   5.1
Stags Leap District - Chimney Rock 8/22/19 1100 79.1   5.0 63   9 65.4   8.8 S | 186 4.1   1.4 8.6   1.8 0.00 0.00 62.2   10.9 80.2   5.0
Napa River Ranch 8/22/19 1100 79.7   4.7 65   10 67.0   9.1 SE | 136 3.6   1.8 7.1   3.0 0.00 0.00 61.8   10.2 80.2   4.4
Truoak 8/22/19 1100 79.3   4.2 66   9 66.9   8.3 N | 0 0.0   0.0 0.0   0.0 0.00 0.00 61.8   9.7 79.7   3.8
Hunter Ranch 53 8/22/19 1100 79.6   4.4 62   9 65.6   8.7 S | 169 2.3   0.1 5.1   0.2 0.00 0.00 61.9   9.6 80.6   4.6
Linda Vista 8/22/19 1100 80.6   4.9 62   8 66.4   8.6 ESE | 117 1.9   0.1 5.6   1.8 0.00 0.00 61.9   9.0 81.8   4.3
Napa River Vineyard, Ranch 29 8/22/19 1100 75.7   4.2 73   12 66.6   8.9 SSW | 196 3.8   1.2 7.0   0.8 0.00 0.00 63.1   11.6 76.1   3.8
Max     86.7 73 69.2 - 4.3 8.6 0.00 0.00 64.4 88.1
Avg     81.2 61 66.4 - 2.9 6.3 0.00 - - -
Min     75.7 50 65.1 - 0.0 0.0 0.00 0.00 61.2 76.1

Napa County - South

17 Stations

15 Minute Data | America/Los_Angeles
as of 8/22/19 11:10 AM PDT
Station Date Time Temp (°F) RH (%) Dew Pt (°F) Wind Dir (°) Wind Spd (mph) Wind Gust (mph) Latest Rain (In) Daily Rain (In) Daily Min Temp (°F) Daily Max Temp (°F)
Mt. Veeder 8/22/19 1100 84.2   5.7 45   7 60.5   1.4 N | 5 4.1   1.2 8.4   2.5 0.00 0.00 65.1   6.1 86.0   7.0
Palmaz 300' 8/22/19 1100 83.5   4.5 56   9 66.4   9.0 S | 178 2.6   1.1 6.0   1.8 0.00 0.00 62.4   10.1 84.3   4.7
Palmaz 1200' 8/22/19 1100 76.3   4.4 69   9 65.5   8.4 W | 271 3.2   0.5 7.1   1.4 - - 59.1   7.6 76.8   3.9
Palmaz 1400' 8/22/19 1100 80.8   5.9 60   6 65.4   8.5 SW | 222 3.9   1.4 8.6   1.0 0.00 0.00 60.8   7.5 81.7   5.3
Truchard Base 8/22/19 1100 79.0   3.1 65   12 66.4   8.6 S | 183 4.2   0.8 7.8   0.4 0.00 0.00 63.8   9.1 79.7   3.3
Truchard Remote 8/22/19 1100 79.4   3.0 64   12 66.3   8.4 - - - - - 59.5   9.7 79.9   2.7
Toyon Base (Napa South) 8/22/19 1100 75.2   2.9 75   12 66.7   7.7 SSE | 162 3.9   0.9 8.4   1.7 0.00 0.00 63.7   9.3 76.0   2.7
Toyon Remote 1 8/22/19 1100 76.5   2.7 - - - - - - - 60.4   9.2 77.1   2.3
Toyon Remote 2 8/22/19 1100 76.2   2.3 - - - - - - - 58.5   10.1 77.4   2.6
Toyon Remote 3 7/10/19 0715 61.3   10.0 - - - - - - - 53.3   8.9 61.5   9.3
Napa-SE 8/22/19 1100 77.6   3.7 66   10 65.1   8.2 SW | 215 4.7   0.9 9.0   0.0 0.00 0.00 65.1   12.2 78.4   3.9
Napa-SE Upper 8/22/19 1100 73.6   2.6 74   14 64.8   8.5 S | 187 4.6   0.7 8.1   0.9 0.00 0.00 64.6   7.6 75.9   4.0
Suscol Mtn 8/22/19 1100 74.4   4.4 71   10 64.3   8.6 W | 265 4.3   0.3 8.5   0.7 0.00 0.00 63.4   6.8 75.0   4.0
Stanly Ranch 45 8/22/19 1100 73.5   1.6 76   14 65.3   7.3 SSE | 168 4.9   0.9 8.6   0.2 0.00 0.00 63.5   11.7 74.4   1.6
Huichica Upper 8/22/19 1100 76.5   1.7 68   13 65.4   7.4 SSE | 167 5.2   1.6 10.9   4.0 - - 63.4   6.5 77.6   1.3
Huichica-Lower 8/22/19 1100 75.5   2.2 72   12 66.1   7.0 S | 169 3.9   0.8 9.5   2.8 0.00 0.00 60.9   10.2 75.9   2.2
Diamond R71 (Carneros) 8/22/19 1100 78.2   3.1 65   13 65.4   9.3 S | 190 3.0   0.5 7.1   1.1 0.00 0.00 64.2   8.5 79.0   3.2
Max     84.2 76 66.7 - 5.2 10.9 0.00 0.00 65.1 86.0
Avg     77.5 66 65.2 - 4.0 8.3 0.00 - - -
Min     73.5 45 60.5 - 2.6 6.0 0.00 0.00 58.5 74.4